createdAt,value
2022-08-14T00:01:31.061Z,19.36
2022-08-14T00:04:35.162Z,19.47
2022-08-14T00:07:24.442Z,19.38
2022-08-14T00:10:51.140Z,19.23
2022-08-14T00:13:24.553Z,19.17
2022-08-14T00:16:41.041Z,19.10
2022-08-14T00:19:21.631Z,19.18
2022-08-14T00:22:08.619Z,19.12
2022-08-14T00:24:56.284Z,19.10
2022-08-14T00:27:44.152Z,19.04
2022-08-14T00:30:37.256Z,19.01
2022-08-14T00:33:51.109Z,18.96
2022-08-14T00:36:49.717Z,18.93
2022-08-14T00:39:37.233Z,18.89
2022-08-14T00:42:55.157Z,18.87
2022-08-14T00:45:31.222Z,18.93
2022-08-14T00:48:34.633Z,19.06
2022-08-14T00:51:23.467Z,19.03
2022-08-14T00:54:22.174Z,18.98
2022-08-14T00:57:09.150Z,18.95
2022-08-14T00:59:56.503Z,18.94
2022-08-14T01:02:45.431Z,18.97
2022-08-14T01:05:51.842Z,19.03
2022-08-14T01:08:51.769Z,19.08
2022-08-14T01:11:45.147Z,19.07
2022-08-14T01:14:43.856Z,19.04
2022-08-14T01:17:49.513Z,19.06
2022-08-14T01:20:54.158Z,19.03
2022-08-14T01:23:47.075Z,19.04
2022-08-14T01:26:38.898Z,19.01
2022-08-14T01:29:40.408Z,19.02
2022-08-14T01:32:37.619Z,19.02
2022-08-14T01:36:05.287Z,19.02
2022-08-14T01:38:37.119Z,19.09
2022-08-14T01:41:30.179Z,19.13
2022-08-14T01:44:32.940Z,19.09
2022-08-14T01:47:22.213Z,19.06
2022-08-14T01:50:11.370Z,19.04
2022-08-14T01:53:01.250Z,18.99
2022-08-14T01:55:51.712Z,18.97
2022-08-14T01:58:57.440Z,18.83
2022-08-14T02:01:51.338Z,18.99
2022-08-14T02:04:55.612Z,18.96
2022-08-14T02:07:44.936Z,18.96
2022-08-14T02:10:47.369Z,18.94
2022-08-14T02:13:37.127Z,18.92
2022-08-14T02:16:29.771Z,18.88
2022-08-14T02:19:19.404Z,18.93
2022-08-14T02:22:06.945Z,18.95
2022-08-14T02:24:57.209Z,18.97
2022-08-14T02:28:23.307Z,19.02
2022-08-14T02:30:52.661Z,19.02
2022-08-14T02:33:42.536Z,18.92
2022-08-14T02:37:05.186Z,18.88
2022-08-14T02:39:38.026Z,18.84
2022-08-14T02:42:37.565Z,18.89
2022-08-14T02:45:24.507Z,18.89
2022-08-14T02:49:05.404Z,18.83
2022-08-14T02:51:19.070Z,18.81
2022-08-14T02:54:07.365Z,18.79
2022-08-14T02:57:15.394Z,18.77
2022-08-14T03:00:03.045Z,18.78
2022-08-14T03:02:58.758Z,18.76
2022-08-14T03:05:45.941Z,18.74
2022-08-14T03:08:38.700Z,18.73
2022-08-14T03:11:34.514Z,18.72
2022-08-14T03:14:27.400Z,18.70
2022-08-14T03:17:15.996Z,18.69
2022-08-14T03:20:06.929Z,18.66
2022-08-14T03:22:59.581Z,18.65
2022-08-14T03:25:49.154Z,18.67
2022-08-14T03:28:36.622Z,18.65
2022-08-14T03:31:26.150Z,18.68
2022-08-14T03:34:25.026Z,18.63
2022-08-14T03:37:51.626Z,18.63
2022-08-14T03:40:29.162Z,18.65
2022-08-14T03:43:17.908Z,18.68
2022-08-14T03:46:04.540Z,18.67
2022-08-14T03:49:13.511Z,18.65
2022-08-14T03:52:03.007Z,18.66
2022-08-14T03:54:52.644Z,18.68
2022-08-14T03:57:40.533Z,18.47
2022-08-14T04:00:43.073Z,18.67
2022-08-14T04:03:31.727Z,18.70
2022-08-14T04:06:20.962Z,18.68
2022-08-14T04:09:08.983Z,18.64
2022-08-14T04:11:58.038Z,18.64
2022-08-14T04:14:46.435Z,18.65
2022-08-14T04:17:44.504Z,18.66
2022-08-14T04:20:34.283Z,18.70
2022-08-14T04:23:39.621Z,18.70
2022-08-14T04:26:42.394Z,18.74
2022-08-14T04:29:32.807Z,18.78
2022-08-14T04:33:02.839Z,18.73
2022-08-14T04:35:55.297Z,18.79
2022-08-14T04:38:58.474Z,18.95
2022-08-14T04:42:03.563Z,19.00
2022-08-14T04:44:51.530Z,19.08
2022-08-14T04:48:04.692Z,19.11
2022-08-14T04:50:54.417Z,19.18
2022-08-14T04:53:44.659Z,19.24
2022-08-14T04:56:34.323Z,19.32
2022-08-14T04:59:21.348Z,19.39
2022-08-14T05:02:18.438Z,19.48
2022-08-14T05:05:06.440Z,19.57
2022-08-14T05:08:01.493Z,19.70
2022-08-14T05:10:52.050Z,19.87
2022-08-14T05:14:06.562Z,19.95
2022-08-14T05:16:48.299Z,19.93
2022-08-14T05:19:44.302Z,19.96
2022-08-14T05:22:42.170Z,20.01
2022-08-14T05:25:33.609Z,20.10
2022-08-14T05:28:25.381Z,20.21
2022-08-14T05:31:20.545Z,20.29
2022-08-14T05:34:07.942Z,20.26
2022-08-14T05:37:01.944Z,20.33
2022-08-14T05:39:48.895Z,20.46
2022-08-14T05:42:37.188Z,20.48
2022-08-14T05:45:24.582Z,20.61
2022-08-14T05:48:32.955Z,20.65
2022-08-14T05:51:23.262Z,20.90
2022-08-14T05:54:26.614Z,21.09
2022-08-14T05:57:13.913Z,21.11
2022-08-14T06:00:02.084Z,21.12
2022-08-14T06:02:50.828Z,21.06
2022-08-14T06:05:39.691Z,21.10
2022-08-14T06:08:36.013Z,21.08
2022-08-14T06:11:30.598Z,21.22
2022-08-14T06:14:21.325Z,21.23
2022-08-14T06:17:15.762Z,21.29
2022-08-14T06:20:14.462Z,21.44
2022-08-14T06:23:01.073Z,21.52
2022-08-14T06:25:52.699Z,21.54
2022-08-14T06:28:40.489Z,21.76
2022-08-14T06:31:32.345Z,21.96
2022-08-14T06:35:03.796Z,22.09
2022-08-14T06:37:27.671Z,22.11
2022-08-14T06:40:27.118Z,22.25
2022-08-14T06:43:16.950Z,22.50
2022-08-14T06:46:04.256Z,22.61
2022-08-14T06:48:51.085Z,22.72
2022-08-14T06:51:44.444Z,22.87
2022-08-14T06:54:32.075Z,22.96
2022-08-14T06:57:24.492Z,22.90
2022-08-14T07:00:22.416Z,23.04
2022-08-14T07:03:33.951Z,23.06
2022-08-14T07:06:46.497Z,23.17
2022-08-14T07:09:40.614Z,23.38
2022-08-14T07:12:34.828Z,23.44
2022-08-14T07:16:27.517Z,23.65
2022-08-14T07:19:13.973Z,23.57
2022-08-14T07:22:05.531Z,23.66
2022-08-14T07:25:06.146Z,23.93
2022-08-14T07:27:53.207Z,24.05
2022-08-14T07:30:41.914Z,24.11
2022-08-14T07:33:41.735Z,24.18
2022-08-14T07:36:30.583Z,24.29
2022-08-14T07:39:17.357Z,24.21
2022-08-14T07:42:15.531Z,24.36
2022-08-14T07:45:07.550Z,24.40
2022-08-14T07:47:58.793Z,24.57
2022-08-14T07:50:47.018Z,24.63
2022-08-14T07:53:36.691Z,24.70
2022-08-14T07:56:47.156Z,24.91
2022-08-14T07:59:40.830Z,24.97
2022-08-14T08:02:32.705Z,25.16
2022-08-14T08:05:24.948Z,25.30
2022-08-14T08:08:27.267Z,25.47
2022-08-14T08:11:15.546Z,25.62
2022-08-14T08:14:24.898Z,25.88
2022-08-14T08:17:26.365Z,25.97
2022-08-14T08:20:29.640Z,26.06
2022-08-14T08:23:20.680Z,26.11
2022-08-14T08:26:12.070Z,26.15
2022-08-14T08:29:02.270Z,26.21
2022-08-14T08:31:52.291Z,26.27
2022-08-14T08:34:48.599Z,26.25
2022-08-14T08:37:40.209Z,26.44
2022-08-14T08:40:31.487Z,26.56
2022-08-14T08:43:22.344Z,26.75
2022-08-14T08:46:21.009Z,26.82
2022-08-14T08:49:18.773Z,27.03
2022-08-14T08:52:24.901Z,27.29
2022-08-14T08:55:17.075Z,27.39
2022-08-14T08:58:16.167Z,27.70
2022-08-14T09:01:03.180Z,27.84
2022-08-14T09:03:49.909Z,28.02
2022-08-14T09:07:00.523Z,28.09
2022-08-14T09:09:58.596Z,28.34
2022-08-14T09:12:51.660Z,28.42
2022-08-14T09:15:42.678Z,28.48
2022-08-14T09:18:30.226Z,28.55
2022-08-14T09:21:18.423Z,28.66
2022-08-14T09:24:29.414Z,28.76
2022-08-14T09:27:22.386Z,28.89
2022-08-14T09:30:12.895Z,28.83
2022-08-14T09:34:01.909Z,28.94
2022-08-14T09:37:12.936Z,29.21
2022-08-14T09:40:08.030Z,29.33
2022-08-14T09:43:12.098Z,29.38
2022-08-14T09:46:02.552Z,29.45
2022-08-14T09:48:59.545Z,29.49
2022-08-14T09:51:58.401Z,29.52
2022-08-14T09:54:48.008Z,29.54
2022-08-14T09:57:35.390Z,29.50
2022-08-14T10:00:42.598Z,29.38
2022-08-14T10:03:33.991Z,29.38
2022-08-14T10:06:25.064Z,29.46
2022-08-14T10:09:16.807Z,29.54
2022-08-14T10:12:06.607Z,29.58
2022-08-14T10:14:59.937Z,29.57
2022-08-14T10:17:49.183Z,29.50
2022-08-14T10:20:41.905Z,29.59
2022-08-14T10:23:43.565Z,29.62
2022-08-14T10:26:30.258Z,29.74
2022-08-14T10:29:23.314Z,29.59
2022-08-14T10:32:17.964Z,29.49
2022-08-14T10:35:17.712Z,29.31
2022-08-14T10:38:10.700Z,29.49
2022-08-14T10:41:12.842Z,29.61
2022-08-14T10:44:21.302Z,29.75
2022-08-14T10:47:41.175Z,29.78
2022-08-14T10:50:29.693Z,29.87
2022-08-14T10:53:17.313Z,29.91
2022-08-14T10:56:21.745Z,30.03
2022-08-14T10:59:16.070Z,30.00
2022-08-14T11:02:03.419Z,30.09
2022-08-14T11:05:05.279Z,30.06
2022-08-14T11:08:00.438Z,30.01
2022-08-14T11:10:49.541Z,29.86
2022-08-14T11:13:44.186Z,29.62
2022-08-14T11:16:31.347Z,29.48
2022-08-14T11:19:19.860Z,29.31
2022-08-14T11:22:15.338Z,29.20
2022-08-14T11:25:21.342Z,29.14
2022-08-14T11:28:10.888Z,29.35
2022-08-14T11:31:01.111Z,29.51
2022-08-14T11:33:58.105Z,29.35
2022-08-14T11:37:04.397Z,29.46
2022-08-14T11:39:52.257Z,29.46
2022-08-14T11:42:57.998Z,29.46
2022-08-14T11:45:48.887Z,29.69
2022-08-14T11:49:02.610Z,29.73
2022-08-14T11:51:54.676Z,29.95
2022-08-14T11:54:43.104Z,29.90
2022-08-14T11:57:33.780Z,30.03
2022-08-14T12:00:31.755Z,30.00
2022-08-14T12:03:27.095Z,30.11
2022-08-14T12:06:28.589Z,30.32
2022-08-14T12:09:32.761Z,30.53
2022-08-14T12:12:35.656Z,30.63
2022-08-14T12:15:38.097Z,30.70
2022-08-14T12:18:40.650Z,30.58
2022-08-14T12:21:35.785Z,30.67
2022-08-14T12:24:40.887Z,30.76
2022-08-14T12:30:48.838Z,30.51
2022-08-14T12:34:03.459Z,30.22
2022-08-14T12:37:08.156Z,30.23
2022-08-14T12:40:02.554Z,30.44
2022-08-14T12:42:56.653Z,30.75
2022-08-14T12:45:51.327Z,30.87
2022-08-14T12:49:02.526Z,31.01
2022-08-14T12:51:59.936Z,30.91
2022-08-14T12:55:06.447Z,31.05
2022-08-14T12:58:01.172Z,31.19
2022-08-14T13:01:16.158Z,31.36
2022-08-14T13:04:10.117Z,31.36
2022-08-14T13:07:11.279Z,31.50
2022-08-14T13:10:45.727Z,31.63
2022-08-14T13:13:20.182Z,31.69
2022-08-14T13:16:20.116Z,31.74
2022-08-14T13:19:12.934Z,31.59
2022-08-14T13:22:05.385Z,31.49
2022-08-14T13:24:56.833Z,31.30
2022-08-14T13:27:45.768Z,31.51
2022-08-14T13:30:34.133Z,31.71
2022-08-14T13:33:25.173Z,31.51
2022-08-14T13:36:24.002Z,31.29
2022-08-14T13:39:12.846Z,31.10
2022-08-14T13:42:08.060Z,31.18
2022-08-14T13:44:56.800Z,31.25
2022-08-14T13:47:45.453Z,31.29
2022-08-14T13:50:36.241Z,30.96
2022-08-14T13:53:24.926Z,30.61
2022-08-14T13:56:14.401Z,30.24
2022-08-14T13:59:02.497Z,30.49
2022-08-14T14:01:51.847Z,30.62
2022-08-14T14:04:41.547Z,30.89
2022-08-14T14:07:32.361Z,31.16
2022-08-14T14:10:28.231Z,31.23
2022-08-14T14:13:18.555Z,31.42
2022-08-14T14:16:08.464Z,31.46
2022-08-14T14:19:06.931Z,31.36
2022-08-14T14:21:56.481Z,31.28
2022-08-14T14:24:46.957Z,31.42
2022-08-14T14:27:40.731Z,31.38
2022-08-14T14:30:52.174Z,31.34
2022-08-14T14:33:48.945Z,31.45
2022-08-14T14:36:36.431Z,31.54
2022-08-14T14:39:27.558Z,31.65
2022-08-14T14:42:31.597Z,31.46
2022-08-14T14:45:24.321Z,31.17
2022-08-14T14:48:17.247Z,31.14
2022-08-14T14:51:07.772Z,31.34
2022-08-14T14:53:54.916Z,31.19
2022-08-14T14:56:52.308Z,31.11
2022-08-14T14:59:43.551Z,31.00
2022-08-14T15:02:36.764Z,31.17
2022-08-14T15:05:28.518Z,31.36
2022-08-14T15:08:26.437Z,31.28
2022-08-14T15:11:24.506Z,31.19
2022-08-14T15:14:55.530Z,31.34
2022-08-14T15:17:22.975Z,31.38
2022-08-14T15:20:16.820Z,31.29
2022-08-14T15:23:11.891Z,31.26
2022-08-14T15:25:59.772Z,31.25
2022-08-14T15:28:48.596Z,31.14
2022-08-14T15:31:49.565Z,31.05
2022-08-14T15:34:51.796Z,31.00
2022-08-14T15:37:42.362Z,30.77
2022-08-14T15:40:31.579Z,30.82
2022-08-14T15:43:27.334Z,30.86
2022-08-14T15:46:41.535Z,30.92
2022-08-14T15:49:34.480Z,30.72
2022-08-14T15:52:32.974Z,30.62
2022-08-14T15:55:23.107Z,30.76
2022-08-14T15:58:14.277Z,30.89
2022-08-14T16:01:31.442Z,31.04
2022-08-14T16:04:25.444Z,31.02
2022-08-14T16:12:10.893Z,30.77
2022-08-14T16:15:01.460Z,30.71
2022-08-14T16:17:50.280Z,30.83
2022-08-14T16:20:44.632Z,30.77
2022-08-14T16:23:35.957Z,30.78
2022-08-14T16:26:29.963Z,30.53
2022-08-14T16:29:21.309Z,30.49
2022-08-14T16:32:33.027Z,30.32
2022-08-14T16:35:18.915Z,29.93
2022-08-14T16:38:19.262Z,29.78
2022-08-14T16:41:22.895Z,29.89
2022-08-14T16:44:32.013Z,29.79
2022-08-14T16:47:22.555Z,29.58
2022-08-14T16:50:11.758Z,29.34
2022-08-14T16:53:02.456Z,29.05
2022-08-14T16:56:23.227Z,28.99
2022-08-14T16:59:13.438Z,28.88
2022-08-14T17:02:05.123Z,29.08
2022-08-14T17:04:53.688Z,29.04
2022-08-14T17:07:44.791Z,28.88
2022-08-14T17:10:35.447Z,28.79
2022-08-14T17:13:27.433Z,28.86
2022-08-14T17:16:37.624Z,28.62
2022-08-14T17:19:25.566Z,28.51
2022-08-14T17:22:14.072Z,28.25
2022-08-14T17:25:03.264Z,28.23
2022-08-14T17:28:49.697Z,28.20
2022-08-14T17:31:17.537Z,27.96
2022-08-14T17:34:04.809Z,27.99
2022-08-14T17:36:54.471Z,27.92
2022-08-14T17:39:45.987Z,27.87
2022-08-14T17:43:14.820Z,27.90
2022-08-14T17:46:01.627Z,27.91
2022-08-14T17:49:14.540Z,28.19
2022-08-14T17:52:07.562Z,28.59
2022-08-14T17:55:07.218Z,28.80
2022-08-14T17:57:54.752Z,28.74
2022-08-14T18:00:45.356Z,28.75
2022-08-14T18:03:49.996Z,28.76
2022-08-14T18:06:57.360Z,28.71
2022-08-14T18:09:56.286Z,28.65
2022-08-14T18:12:46.713Z,28.59
2022-08-14T18:15:37.413Z,28.46
2022-08-14T18:18:24.772Z,28.45
2022-08-14T18:21:39.922Z,28.50
2022-08-14T18:24:29.395Z,28.43
2022-08-14T18:27:23.229Z,28.37
2022-08-14T18:30:32.144Z,28.24
2022-08-14T18:33:22.213Z,28.08
2022-08-14T18:36:47.824Z,28.00
2022-08-14T18:39:32.124Z,27.91
2022-08-14T18:42:41.356Z,27.75
2022-08-14T18:45:34.296Z,27.63
2022-08-14T18:48:50.232Z,27.54
2022-08-14T18:51:44.795Z,27.45
2022-08-14T18:54:37.930Z,27.36
2022-08-14T18:57:24.390Z,27.21
2022-08-14T19:00:51.397Z,27.02
2022-08-14T19:04:02.312Z,26.87
2022-08-14T19:06:56.307Z,26.82
2022-08-14T19:09:56.228Z,26.68
2022-08-14T19:13:11.927Z,26.65
2022-08-14T19:16:07.326Z,26.61
2022-08-14T19:19:00.425Z,26.56
2022-08-14T19:21:57.797Z,26.57
2022-08-14T19:24:45.157Z,26.58
2022-08-14T19:27:37.442Z,26.61
2022-08-14T19:30:26.840Z,26.53
2022-08-14T19:33:55.208Z,26.51
2022-08-14T19:37:04.542Z,26.38
2022-08-14T19:39:54.634Z,26.44
2022-08-14T19:42:46.812Z,26.41
2022-08-14T19:45:36.447Z,26.30
2022-08-14T19:48:25.453Z,26.18
2022-08-14T19:51:12.028Z,26.10
2022-08-14T19:54:06.513Z,25.89
2022-08-14T19:57:02.561Z,25.87
2022-08-14T19:59:58.008Z,25.60
2022-08-14T20:02:48.867Z,25.41
2022-08-14T20:05:45.693Z,25.38
2022-08-14T20:10:59.683Z,25.21
2022-08-14T20:12:01.668Z,25.08
2022-08-14T20:14:51.801Z,24.97
2022-08-14T20:17:40.631Z,24.90
2022-08-14T20:20:30.687Z,24.82
2022-08-14T20:23:20.343Z,24.68
2022-08-14T20:26:30.998Z,24.66
2022-08-14T20:29:30.244Z,24.57
2022-08-14T20:32:18.178Z,24.47
2022-08-14T20:35:08.655Z,24.38
2022-08-14T20:37:59.993Z,24.32
2022-08-14T20:41:09.469Z,24.29
2022-08-14T20:44:20.667Z,24.23
2022-08-14T20:47:08.033Z,24.13
2022-08-14T20:50:20.222Z,23.85
2022-08-14T20:53:33.650Z,24.01
2022-08-14T20:56:28.622Z,23.89
2022-08-14T20:59:18.476Z,23.87
2022-08-14T21:02:30.528Z,23.78
2022-08-14T21:05:33.977Z,23.72
2022-08-14T21:08:25.634Z,23.70
2022-08-14T21:11:17.796Z,23.59
2022-08-14T21:14:24.785Z,23.48
2022-08-14T21:17:14.595Z,23.37
2022-08-14T21:20:26.439Z,23.30
2022-08-14T21:23:12.398Z,23.18
2022-08-14T21:25:59.800Z,23.03
2022-08-14T21:28:47.167Z,22.97
2022-08-14T21:31:34.294Z,22.91
2022-08-14T21:34:31.079Z,22.83
2022-08-14T21:37:19.781Z,22.75
2022-08-14T21:40:40.696Z,22.72
2022-08-14T21:43:17.917Z,22.65
2022-08-14T21:46:05.489Z,22.56
2022-08-14T21:48:52.323Z,22.48
2022-08-14T21:51:53.866Z,22.39
2022-08-14T21:54:49.338Z,22.29
2022-08-14T21:58:51.381Z,22.20
2022-08-14T22:00:44.943Z,22.07
2022-08-14T22:03:35.517Z,22.02
2022-08-14T22:06:28.897Z,21.98
2022-08-14T22:09:16.720Z,21.94
2022-08-14T22:12:45.298Z,21.86
2022-08-14T22:15:22.029Z,21.78
2022-08-14T22:18:10.068Z,21.72
2022-08-14T22:21:08.023Z,21.63
2022-08-14T22:23:54.704Z,21.59
2022-08-14T22:26:44.965Z,21.52
2022-08-14T22:29:33.633Z,21.48
2022-08-14T22:32:24.135Z,21.39
2022-08-14T22:35:23.621Z,21.32
2022-08-14T22:38:34.899Z,21.25
2022-08-14T22:41:27.716Z,21.21
2022-08-14T22:44:21.067Z,21.12
2022-08-14T22:47:10.374Z,21.06
2022-08-14T22:50:30.506Z,21.01
2022-08-14T22:53:05.757Z,20.97
2022-08-14T22:55:53.618Z,20.92
2022-08-14T22:58:40.592Z,20.88
2022-08-14T23:01:56.077Z,20.88
2022-08-14T23:04:53.646Z,20.83
2022-08-14T23:09:00.463Z,20.82
2022-08-14T23:10:48.115Z,20.87
2022-08-14T23:13:38.778Z,20.77
2022-08-14T23:16:26.163Z,20.71
2022-08-14T23:19:13.683Z,20.63
2022-08-14T23:22:02.542Z,20.63
2022-08-14T23:24:53.013Z,20.57
2022-08-14T23:28:03.335Z,20.52
2022-08-14T23:30:50.457Z,20.45
2022-08-14T23:33:45.677Z,20.37
2022-08-14T23:36:54.276Z,20.34
2022-08-14T23:39:43.072Z,20.27
2022-08-14T23:42:39.763Z,20.23
2022-08-14T23:45:35.358Z,20.21
2022-08-14T23:48:27.920Z,20.15
2022-08-14T23:51:20.030Z,20.09
2022-08-14T23:54:48.408Z,20.06
2022-08-14T23:57:15.065Z,20.05
